Louisville, KY

4:07 AM EST on February 14, 2016 (GMT -0500)
portland | | Change Station
CLOSE
Current Station
Personal Weather Station
Location: Louisville, KY
Elevation: 459 ft
Nearby Weather Stations
Active Advisory: Winter Weather Advisory

Elev 459 ft 38.27 °N, 85.78 °W | Updated 24 seconds ago

Overcast
Overcast
19.8 °F
Feels Like 20 °F
N
1.1
Wind Variable Wind from SSE

Today
High -- | Low -- °F
--% Chance of Precip.
Yesterday
High -- | Low -- °F
Precip. -- in
Pressure 30.49 in
Visibility 10.0 miles
Clouds Mostly Cloudy 9000 ft
Overcast 12000 ft
Windchill 20 °F
Dew Point 7 °F
Humidity 57%
Rainfall 0.00 in
Snow Depth Not available.
7:35 AM 6:19 PM
Waxing Crescent, 39% visible
METAR KLOU 140853Z AUTO 08006KT 10SM BKN090 OVC120 M07/M16 A3046 RMK AO2 SLP323 T10721156 58003
Pressure 30.49 in
Visibility 10.0 miles
Clouds Mostly Cloudy 9000 ft
Overcast 12000 ft
Windchill 20 °F
Dew Point 7 °F
Humidity 57%
Rainfall 0.00 in
Snow Depth Not available.
7:35 AM 6:19 PM
Waxing Crescent, 39% visible
METAR KLOU 140853Z AUTO 08006KT 10SM BKN090 OVC120 M07/M16 A3046 RMK AO2 SLP323 T10721156 58003

10-Day Weather Forecast

Almanac

Astronomy

Feb. 14, 2016 Rise Set
Actual Time
Civil Twilight
Nautical Twilight
Astronomical Twilight
Moon
Length of Visible Light
Length of Day
Tomorrow will be .
, % of the Moon is Illuminated

Today's Extremes

State Highs State Lows

Community

WunderPhotos

Upload Photos

1,892,763 photos uploaded!

WunderBlog® & News

Nearby

Air Quality

  Air Quality AQ Index Pollutant
Not available.

Snow Depth

Station Depth Elevation

Earthquake Activity

City Distance Mag. Time & Date
Minimum magnitude displayed is 2.5.

Coastal Water Temperatures

Place Temperature

Stations

Nearby Weather Stations

Station Location Temp. Windchill Dew Point Humidity Wind Precip. Elev Updated Type
                   

Watches & Warnings

Winter Weather Advisory
Issued: 1:04 PM CST Feb. 13, 2016 – National Weather Service

... Winter Weather Advisory in effect from 7 am EST /6 am CST/
Sunday to 10 am EST /9 am CST/ Monday...

The National Weather Service in Louisville has issued a Winter
Weather Advisory for snow... which is in effect from 7 am EST /6
am CST/ Sunday to 10 am EST /9 am CST/ Monday.

* Timing... light snow will begin Sunday morning... becoming
heavier Sunday afternoon and evening.

* Main impact... 2 to 4 inches of snow will be possible by late
Sunday night.

* Other impacts... there is a chance of a brief period of freezing
drizzle late Sunday night before transitioning to drizzle or
rain Monday morning.

Precautionary/preparedness actions...

A Winter Weather Advisory for snow means that periods of snow
will cause primarily travel difficulties. Be prepared for snow
covered roads and limited visibilities... and use caution while
driving.



13